sensor_id;sensor_type;location;lat;lon;timestamp;temperature;humidity
12634;DHT22;6382;48.614;8.880;2023-03-01T00:01:08;-2.80;99.90
12634;DHT22;6382;48.614;8.880;2023-03-01T00:03:35;-2.90;99.90
12634;DHT22;6382;48.614;8.880;2023-03-01T00:06:02;-2.70;99.90
12634;DHT22;6382;48.614;8.880;2023-03-01T00:08:29;-2.90;99.90
12634;DHT22;6382;48.614;8.880;2023-03-01T00:13:29;-3.00;99.90
12634;DHT22;6382;48.614;8.880;2023-03-01T00:15:55;-3.00;99.90
12634;DHT22;6382;48.614;8.880;2023-03-01T00:18:22;-3.00;99.90
12634;DHT22;6382;48.614;8.880;2023-03-01T00:20:50;-3.00;99.90
12634;DHT22;6382;48.614;8.880;2023-03-01T00:23:17;-3.00;99.90
12634;DHT22;6382;48.614;8.880;2023-03-01T00:25:44;-3.00;99.90
12634;DHT22;6382;48.614;8.880;2023-03-01T00:28:11;-3.00;99.90
12634;DHT22;6382;48.614;8.880;2023-03-01T00:30:37;-3.10;99.90
12634;DHT22;6382;48.614;8.880;2023-03-01T00:33:04;-3.00;99.90
12634;DHT22;6382;48.614;8.880;2023-03-01T00:35:34;-3.00;99.90
12634;DHT22;6382;48.614;8.880;2023-03-01T00:38:01;-3.00;99.90
12634;DHT22;6382;48.614;8.880;2023-03-01T00:40:28;-3.00;99.90
12634;DHT22;6382;48.614;8.880;2023-03-01T00:42:55;-3.00;99.90
12634;DHT22;6382;48.614;8.880;2023-03-01T00:45:23;-3.00;99.90
12634;DHT22;6382;48.614;8.880;2023-03-01T00:47:50;-3.00;99.90
12634;DHT22;6382;48.614;8.880;2023-03-01T00:50:17;-3.10;99.90
12634;DHT22;6382;48.614;8.880;2023-03-01T00:52:43;-3.10;99.90
12634;DHT22;6382;48.614;8.880;2023-03-01T00:55:10;-3.10;99.90
12634;DHT22;6382;48.614;8.880;2023-03-01T00:57:37;-3.20;99.90
12634;DHT22;6382;48.614;8.880;2023-03-01T01:00:05;-2.50;99.90
12634;DHT22;6382;48.614;8.880;2023-03-01T01:02:32;-3.30;99.90
12634;DHT22;6382;48.614;8.880;2023-03-01T01:04:59;-3.30;99.90
12634;DHT22;6382;48.614;8.880;2023-03-01T01:07:26;-3.40;99.90
12634;DHT22;6382;48.614;8.880;2023-03-01T01:09:52;-3.30;99.90
12634;DHT22;6382;48.614;8.880;2023-03-01T01:12:19;-3.30;99.90
12634;DHT22;6382;48.614;8.880;2023-03-01T01:14:46;-3.30;99.90
12634;DHT22;6382;48.614;8.880;2023-03-01T01:17:12;-3.30;99.90
12634;DHT22;6382;48.614;8.880;2023-03-01T01:19:39;-3.30;99.90
12634;DHT22;6382;48.614;8.880;2023-03-01T01:22:06;-3.40;99.90
12634;DHT22;6382;48.614;8.880;2023-03-01T01:24:32;-3.50;99.90
12634;DHT22;6382;48.614;8.880;2023-03-01T01:26:59;-3.40;99.90
12634;DHT22;6382;48.614;8.880;2023-03-01T01:29:25;-3.50;99.90
12634;DHT22;6382;48.614;8.880;2023-03-01T01:31:52;-3.60;99.90
12634;DHT22;6382;48.614;8.880;2023-03-01T01:34:19;-3.60;99.90
12634;DHT22;6382;48.614;8.880;2023-03-01T01:36:50;-3.70;99.90
12634;DHT22;6382;48.614;8.880;2023-03-01T01:39:17;-3.80;99.90
12634;DHT22;6382;48.614;8.880;2023-03-01T01:41:43;-3.80;99.90
12634;DHT22;6382;48.614;8.880;2023-03-01T01:44:32;-3.90;99.90
12634;DHT22;6382;48.614;8.880;2023-03-01T01:49:29;-3.90;99.90
12634;DHT22;6382;48.614;8.880;2023-03-01T01:52:05;-3.90;99.90
12634;DHT22;6382;48.614;8.880;2023-03-01T01:55:20;-1.80;99.90
12634;DHT22;6382;48.614;8.880;2023-03-01T01:57:26;-3.90;99.90
12634;DHT22;6382;48.614;8.880;2023-03-01T01:59:54;-3.90;99.90
12634;DHT22;6382;48.614;8.880;2023-03-01T02:02:22;-3.90;99.90
12634;DHT22;6382;48.614;8.880;2023-03-01T02:04:50;-3.80;99.90
12634;DHT22;6382;48.614;8.880;2023-03-01T02:07:20;-3.90;99.90
12634;DHT22;6382;48.614;8.880;2023-03-01T02:09:48;-3.90;99.90
12634;DHT22;6382;48.614;8.880;2023-03-01T02:12:16;-3.80;99.90
12634;DHT22;6382;48.614;8.880;2023-03-01T02:14:43;-3.90;99.90
12634;DHT22;6382;48.614;8.880;2023-03-01T02:17:11;-3.90;99.90
12634;DHT22;6382;48.614;8.880;2023-03-01T02:19:41;-3.90;99.90
12634;DHT22;6382;48.614;8.880;2023-03-01T02:22:17;-3.80;99.90
12634;DHT22;6382;48.614;8.880;2023-03-01T02:25:03;-3.80;99.90
12634;DHT22;6382;48.614;8.880;2023-03-01T02:30:20;-3.70;99.90
12634;DHT22;6382;48.614;8.880;2023-03-01T02:32:47;-3.70;99.90
12634;DHT22;6382;48.614;8.880;2023-03-01T02:35:15;-3.60;99.90
12634;DHT22;6382;48.614;8.880;2023-03-01T02:37:42;-3.50;99.90
12634;DHT22;6382;48.614;8.880;2023-03-01T02:40:10;-3.50;99.90
12634;DHT22;6382;48.614;8.880;2023-03-01T02:42:45;-3.50;99.90
12634;DHT22;6382;48.614;8.880;2023-03-01T02:45:13;-3.40;99.90
12634;DHT22;6382;48.614;8.880;2023-03-01T02:47:40;-3.40;99.90
12634;DHT22;6382;48.614;8.880;2023-03-01T02:50:18;-3.40;99.90
12634;DHT22;6382;48.614;8.880;2023-03-01T02:52:46;-3.40;99.90
12634;DHT22;6382;48.614;8.880;2023-03-01T02:55:16;-3.30;99.90
12634;DHT22;6382;48.614;8.880;2023-03-01T02:57:44;-3.30;99.90
12634;DHT22;6382;48.614;8.880;2023-03-01T03:00:12;-3.30;99.90
12634;DHT22;6382;48.614;8.880;2023-03-01T03:02:46;-3.30;99.90
12634;DHT22;6382;48.614;8.880;2023-03-01T03:05:20;-3.20;99.90
12634;DHT22;6382;48.614;8.880;2023-03-01T03:07:47;-3.20;99.90
12634;DHT22;6382;48.614;8.880;2023-03-01T03:10:15;-3.10;99.90
12634;DHT22;6382;48.614;8.880;2023-03-01T03:12:42;-3.10;99.90
12634;DHT22;6382;48.614;8.880;2023-03-01T03:15:09;-3.00;99.90
12634;DHT22;6382;48.614;8.880;2023-03-01T03:17:39;-3.10;99.90
12634;DHT22;6382;48.614;8.880;2023-03-01T03:20:08;-3.00;99.90
12634;DHT22;6382;48.614;8.880;2023-03-01T03:22:41;-3.00;99.90
12634;DHT22;6382;48.614;8.880;2023-03-01T03:25:07;-3.00;99.90
12634;DHT22;6382;48.614;8.880;2023-03-01T03:27:37;-3.00;99.90
12634;DHT22;6382;48.614;8.880;2023-03-01T03:30:05;-2.90;99.90
12634;DHT22;6382;48.614;8.880;2023-03-01T03:32:35;-2.90;99.90
12634;DHT22;6382;48.614;8.880;2023-03-01T03:35:03;-2.80;99.90
12634;DHT22;6382;48.614;8.880;2023-03-01T03:37:39;-2.80;99.90
12634;DHT22;6382;48.614;8.880;2023-03-01T03:40:24;-2.80;99.90
12634;DHT22;6382;48.614;8.880;2023-03-01T03:42:51;-2.80;99.90
12634;DHT22;6382;48.614;8.880;2023-03-01T03:45:18;-2.80;99.90
12634;DHT22;6382;48.614;8.880;2023-03-01T03:47:44;-2.80;99.90
12634;DHT22;6382;48.614;8.880;2023-03-01T03:50:12;-2.80;99.90
12634;DHT22;6382;48.614;8.880;2023-03-01T03:52:39;-2.80;99.90
12634;DHT22;6382;48.614;8.880;2023-03-01T03:55:06;-2.80;99.90
12634;DHT22;6382;48.614;8.880;2023-03-01T03:57:37;-2.70;99.90
12634;DHT22;6382;48.614;8.880;2023-03-01T04:00:05;-2.70;99.90
12634;DHT22;6382;48.614;8.880;2023-03-01T04:02:31;-2.70;99.90
12634;DHT22;6382;48.614;8.880;2023-03-01T04:04:58;-2.70;99.90
12634;DHT22;6382;48.614;8.880;2023-03-01T04:07:25;-2.70;99.90
12634;DHT22;6382;48.614;8.880;2023-03-01T04:09:51;-2.70;99.90
12634;DHT22;6382;48.614;8.880;2023-03-01T04:12:18;-2.70;99.90
12634;DHT22;6382;48.614;8.880;2023-03-01T04:14:49;-2.70;99.90
12634;DHT22;6382;48.614;8.880;2023-03-01T04:17:15;-2.60;99.90
12634;DHT22;6382;48.614;8.880;2023-03-01T04:19:42;-2.60;99.90
12634;DHT22;6382;48.614;8.880;2023-03-01T04:22:10;-2.60;99.90
12634;DHT22;6382;48.614;8.880;2023-03-01T04:24:37;-2.50;99.90
12634;DHT22;6382;48.614;8.880;2023-03-01T04:27:04;-2.50;99.90
12634;DHT22;6382;48.614;8.880;2023-03-01T04:29:30;-2.50;99.90
12634;DHT22;6382;48.614;8.880;2023-03-01T04:31:57;-2.50;99.90
12634;DHT22;6382;48.614;8.880;2023-03-01T04:34:24;-2.50;99.90
12634;DHT22;6382;48.614;8.880;2023-03-01T04:36:53;-2.50;99.90
12634;DHT22;6382;48.614;8.880;2023-03-01T04:39:20;-2.40;99.90
12634;DHT22;6382;48.614;8.880;2023-03-01T04:41:46;-2.40;99.90
12634;DHT22;6382;48.614;8.880;2023-03-01T04:44:13;-2.30;99.90
12634;DHT22;6382;48.614;8.880;2023-03-01T04:46:40;-2.30;99.90
12634;DHT22;6382;48.614;8.880;2023-03-01T04:49:06;-2.30;99.90
12634;DHT22;6382;48.614;8.880;2023-03-01T04:51:33;-2.30;99.90
12634;DHT22;6382;48.614;8.880;2023-03-01T04:54:00;-2.20;99.90
12634;DHT22;6382;48.614;8.880;2023-03-01T04:56:27;-2.20;99.90
12634;DHT22;6382;48.614;8.880;2023-03-01T04:58:54;-2.20;99.90
12634;DHT22;6382;48.614;8.880;2023-03-01T05:01:21;-2.10;99.90
12634;DHT22;6382;48.614;8.880;2023-03-01T05:03:48;-2.10;99.90
12634;DHT22;6382;48.614;8.880;2023-03-01T05:06:16;-2.10;99.90
12634;DHT22;6382;48.614;8.880;2023-03-01T05:08:43;-2.00;99.90
12634;DHT22;6382;48.614;8.880;2023-03-01T05:11:10;-2.00;99.90
12634;DHT22;6382;48.614;8.880;2023-03-01T05:13:37;-2.00;99.90
12634;DHT22;6382;48.614;8.880;2023-03-01T05:16:04;-2.00;99.90
12634;DHT22;6382;48.614;8.880;2023-03-01T05:18:32;-2.00;99.90
12634;DHT22;6382;48.614;8.880;2023-03-01T05:21:04;-1.90;99.90
12634;DHT22;6382;48.614;8.880;2023-03-01T05:23:31;-1.90;99.90
12634;DHT22;6382;48.614;8.880;2023-03-01T05:25:58;-1.90;99.90
12634;DHT22;6382;48.614;8.880;2023-03-01T05:28:26;-1.90;99.90
12634;DHT22;6382;48.614;8.880;2023-03-01T05:30:53;-0.50;99.90
12634;DHT22;6382;48.614;8.880;2023-03-01T05:33:19;-1.90;99.90
12634;DHT22;6382;48.614;8.880;2023-03-01T05:35:48;-1.90;99.90
12634;DHT22;6382;48.614;8.880;2023-03-01T05:38:15;-1.90;99.90
12634;DHT22;6382;48.614;8.880;2023-03-01T05:40:42;-1.90;99.90
12634;DHT22;6382;48.614;8.880;2023-03-01T05:43:10;-1.90;99.90
12634;DHT22;6382;48.614;8.880;2023-03-01T05:45:37;-1.80;99.90
12634;DHT22;6382;48.614;8.880;2023-03-01T05:48:04;-1.80;99.90
12634;DHT22;6382;48.614;8.880;2023-03-01T05:50:32;-1.80;99.90
12634;DHT22;6382;48.614;8.880;2023-03-01T05:53:03;-1.80;99.90
12634;DHT22;6382;48.614;8.880;2023-03-01T05:55:32;-1.80;99.90
12634;DHT22;6382;48.614;8.880;2023-03-01T05:57:59;-1.80;99.90
12634;DHT22;6382;48.614;8.880;2023-03-01T06:00:27;-1.80;99.90
12634;DHT22;6382;48.614;8.880;2023-03-01T06:02:54;-1.80;99.90
12634;DHT22;6382;48.614;8.880;2023-03-01T06:05:21;-1.80;99.90
12634;DHT22;6382;48.614;8.880;2023-03-01T06:07:48;0.20;99.90
12634;DHT22;6382;48.614;8.880;2023-03-01T06:10:16;-1.80;99.90
12634;DHT22;6382;48.614;8.880;2023-03-01T06:12:44;-1.70;99.90
12634;DHT22;6382;48.614;8.880;2023-03-01T06:15:11;-1.70;99.90
12634;DHT22;6382;48.614;8.880;2023-03-01T06:17:39;-1.70;99.90
12634;DHT22;6382;48.614;8.880;2023-03-01T06:20:08;-1.70;99.90
12634;DHT22;6382;48.614;8.880;2023-03-01T06:22:35;-1.70;99.90
12634;DHT22;6382;48.614;8.880;2023-03-01T06:25:02;-1.70;99.90
12634;DHT22;6382;48.614;8.880;2023-03-01T06:27:29;-1.70;99.90
12634;DHT22;6382;48.614;8.880;2023-03-01T06:29:55;-1.70;99.90
12634;DHT22;6382;48.614;8.880;2023-03-01T06:32:22;-1.60;99.90
12634;DHT22;6382;48.614;8.880;2023-03-01T06:34:49;-1.60;99.90
12634;DHT22;6382;48.614;8.880;2023-03-01T06:37:16;-1.60;99.90
12634;DHT22;6382;48.614;8.880;2023-03-01T06:39:42;-1.60;99.90
12634;DHT22;6382;48.614;8.880;2023-03-01T06:42:09;-1.50;99.90
12634;DHT22;6382;48.614;8.880;2023-03-01T06:44:39;-1.40;99.90
12634;DHT22;6382;48.614;8.880;2023-03-01T06:47:05;-1.50;99.90
12634;DHT22;6382;48.614;8.880;2023-03-01T06:49:32;-1.50;99.90
12634;DHT22;6382;48.614;8.880;2023-03-01T06:51:59;-2.70;99.90
12634;DHT22;6382;48.614;8.880;2023-03-01T06:54:25;-1.50;99.90
12634;DHT22;6382;48.614;8.880;2023-03-01T06:56:52;-1.40;99.90
12634;DHT22;6382;48.614;8.880;2023-03-01T06:59:19;-1.40;99.90
12634;DHT22;6382;48.614;8.880;2023-03-01T07:01:45;-1.30;99.90
12634;DHT22;6382;48.614;8.880;2023-03-01T07:04:12;-1.30;99.90
12634;DHT22;6382;48.614;8.880;2023-03-01T07:06:39;-1.30;99.90
12634;DHT22;6382;48.614;8.880;2023-03-01T07:09:06;-1.30;99.90
12634;DHT22;6382;48.614;8.880;2023-03-01T07:11:32;-1.30;99.90
12634;DHT22;6382;48.614;8.880;2023-03-01T07:13:59;-1.30;99.90
12634;DHT22;6382;48.614;8.880;2023-03-01T07:16:26;-1.20;99.90
12634;DHT22;6382;48.614;8.880;2023-03-01T07:18:53;-1.30;99.90
12634;DHT22;6382;48.614;8.880;2023-03-01T07:21:20;-1.30;99.90
12634;DHT22;6382;48.614;8.880;2023-03-01T07:23:47;-1.20;99.90
12634;DHT22;6382;48.614;8.880;2023-03-01T07:26:14;-1.30;99.90
12634;DHT22;6382;48.614;8.880;2023-03-01T07:28:41;-1.20;99.90
12634;DHT22;6382;48.614;8.880;2023-03-01T07:31:07;-1.20;99.90
12634;DHT22;6382;48.614;8.880;2023-03-01T07:33:34;-1.20;99.90
12634;DHT22;6382;48.614;8.880;2023-03-01T07:36:01;-1.20;99.90
12634;DHT22;6382;48.614;8.880;2023-03-01T07:38:29;-3.00;99.90
12634;DHT22;6382;48.614;8.880;2023-03-01T07:40:59;-1.10;99.90
12634;DHT22;6382;48.614;8.880;2023-03-01T07:43:27;-1.10;99.90
12634;DHT22;6382;48.614;8.880;2023-03-01T07:45:53;-1.10;99.90
12634;DHT22;6382;48.614;8.880;2023-03-01T07:48:20;-1.00;99.90
12634;DHT22;6382;48.614;8.880;2023-03-01T07:50:47;-1.00;99.90
12634;DHT22;6382;48.614;8.880;2023-03-01T07:53:13;-1.00;99.90
12634;DHT22;6382;48.614;8.880;2023-03-01T07:55:40;-1.00;99.90
12634;DHT22;6382;48.614;8.880;2023-03-01T07:58:07;-0.90;99.90
12634;DHT22;6382;48.614;8.880;2023-03-01T08:00:33;-0.80;99.90
12634;DHT22;6382;48.614;8.880;2023-03-01T08:03:00;-0.80;99.90
12634;DHT22;6382;48.614;8.880;2023-03-01T08:05:27;-0.70;99.90
12634;DHT22;6382;48.614;8.880;2023-03-01T08:07:54;-0.70;99.90
12634;DHT22;6382;48.614;8.880;2023-03-01T08:10:21;-0.70;99.90
12634;DHT22;6382;48.614;8.880;2023-03-01T08:12:47;-0.60;99.90
12634;DHT22;6382;48.614;8.880;2023-03-01T08:15:14;-0.70;99.90
12634;DHT22;6382;48.614;8.880;2023-03-01T08:17:41;-0.60;99.90
12634;DHT22;6382;48.614;8.880;2023-03-01T08:20:07;-0.60;99.90
12634;DHT22;6382;48.614;8.880;2023-03-01T08:22:35;-0.60;99.90
12634;DHT22;6382;48.614;8.880;2023-03-01T08:25:02;-0.50;99.90
12634;DHT22;6382;48.614;8.880;2023-03-01T08:27:28;-0.50;99.90
12634;DHT22;6382;48.614;8.880;2023-03-01T08:29:55;-0.40;99.90
12634;DHT22;6382;48.614;8.880;2023-03-01T08:32:22;-0.40;99.90
12634;DHT22;6382;48.614;8.880;2023-03-01T08:34:48;-0.30;99.90
12634;DHT22;6382;48.614;8.880;2023-03-01T08:37:15;-0.30;99.90
12634;DHT22;6382;48.614;8.880;2023-03-01T08:39:42;-0.20;99.90
12634;DHT22;6382;48.614;8.880;2023-03-01T08:42:08;-0.10;99.90
12634;DHT22;6382;48.614;8.880;2023-03-01T08:44:35;0.00;99.90
12634;DHT22;6382;48.614;8.880;2023-03-01T08:47:02;0.00;99.90
12634;DHT22;6382;48.614;8.880;2023-03-01T08:49:29;0.10;99.90
12634;DHT22;6382;48.614;8.880;2023-03-01T08:51:56;0.20;99.90
12634;DHT22;6382;48.614;8.880;2023-03-01T08:54:23;0.30;99.90
12634;DHT22;6382;48.614;8.880;2023-03-01T08:56:49;0.30;99.90
12634;DHT22;6382;48.614;8.880;2023-03-01T08:59:16;0.40;99.90
12634;DHT22;6382;48.614;8.880;2023-03-01T09:01:43;0.50;99.90
12634;DHT22;6382;48.614;8.880;2023-03-01T09:04:10;0.60;99.90
12634;DHT22;6382;48.614;8.880;2023-03-01T09:06:37;0.70;99.90
12634;DHT22;6382;48.614;8.880;2023-03-01T09:09:06;0.80;99.90
12634;DHT22;6382;48.614;8.880;2023-03-01T09:11:34;0.90;99.90
12634;DHT22;6382;48.614;8.880;2023-03-01T09:14:00;1.10;99.90
12634;DHT22;6382;48.614;8.880;2023-03-01T09:16:27;1.10;99.90
12634;DHT22;6382;48.614;8.880;2023-03-01T09:18:56;1.20;99.90
12634;DHT22;6382;48.614;8.880;2023-03-01T09:21:23;1.20;99.90
12634;DHT22;6382;48.614;8.880;2023-03-01T09:24:13;1.30;99.90
12634;DHT22;6382;48.614;8.880;2023-03-01T09:26:40;1.40;99.90
12634;DHT22;6382;48.614;8.880;2023-03-01T09:29:06;1.50;99.90
12634;DHT22;6382;48.614;8.880;2023-03-01T09:31:35;1.40;99.90
12634;DHT22;6382;48.614;8.880;2023-03-01T09:34:02;1.40;99.90
12634;DHT22;6382;48.614;8.880;2023-03-01T09:36:29;1.40;99.90
12634;DHT22;6382;48.614;8.880;2023-03-01T09:38:59;1.40;99.90
12634;DHT22;6382;48.614;8.880;2023-03-01T09:41:38;1.30;99.90
12634;DHT22;6382;48.614;8.880;2023-03-01T09:44:10;1.30;99.90
12634;DHT22;6382;48.614;8.880;2023-03-01T09:46:43;1.40;99.90
12634;DHT22;6382;48.614;8.880;2023-03-01T09:49:11;1.50;99.90
12634;DHT22;6382;48.614;8.880;2023-03-01T09:51:41;1.70;99.90
12634;DHT22;6382;48.614;8.880;2023-03-01T09:54:08;1.70;99.90
12634;DHT22;6382;48.614;8.880;2023-03-01T09:56:37;1.70;99.90
12634;DHT22;6382;48.614;8.880;2023-03-01T10:01:40;1.80;99.90
12634;DHT22;6382;48.614;8.880;2023-03-01T10:04:27;1.90;99.90
12634;DHT22;6382;48.614;8.880;2023-03-01T10:06:58;2.00;99.90
12634;DHT22;6382;48.614;8.880;2023-03-01T10:09:29;2.10;99.90
12634;DHT22;6382;48.614;8.880;2023-03-01T10:11:56;2.10;99.90
12634;DHT22;6382;48.614;8.880;2023-03-01T10:16:54;2.20;99.90
12634;DHT22;6382;48.614;8.880;2023-03-01T10:19:27;2.10;99.90
12634;DHT22;6382;48.614;8.880;2023-03-01T10:21:57;2.20;99.90
12634;DHT22;6382;48.614;8.880;2023-03-01T10:24:27;2.30;99.90
12634;DHT22;6382;48.614;8.880;2023-03-01T10:26:58;2.40;99.90
12634;DHT22;6382;48.614;8.880;2023-03-01T10:29:37;2.50;99.90
12634;DHT22;6382;48.614;8.880;2023-03-01T10:32:05;2.50;99.90
12634;DHT22;6382;48.614;8.880;2023-03-01T10:34:34;2.50;99.90
12634;DHT22;6382;48.614;8.880;2023-03-01T10:37:15;2.60;99.90
12634;DHT22;6382;48.614;8.880;2023-03-01T10:39:58;2.70;99.90
12634;DHT22;6382;48.614;8.880;2023-03-01T10:42:26;2.70;99.90
12634;DHT22;6382;48.614;8.880;2023-03-01T10:44:53;2.90;99.90
12634;DHT22;6382;48.614;8.880;2023-03-01T10:47:25;2.90;99.90
12634;DHT22;6382;48.614;8.880;2023-03-01T10:52:20;3.00;99.90
12634;DHT22;6382;48.614;8.880;2023-03-01T10:54:51;3.00;99.90
12634;DHT22;6382;48.614;8.880;2023-03-01T10:57:27;3.10;99.90
12634;DHT22;6382;48.614;8.880;2023-03-01T11:00:29;3.00;99.90
12634;DHT22;6382;48.614;8.880;2023-03-01T11:02:49;0.50;99.90
12634;DHT22;6382;48.614;8.880;2023-03-01T11:05:19;3.20;99.90
12634;DHT22;6382;48.614;8.880;2023-03-01T11:07:49;5.50;99.90
12634;DHT22;6382;48.614;8.880;2023-03-01T11:10:21;3.30;99.90
12634;DHT22;6382;48.614;8.880;2023-03-01T11:12:48;3.40;99.90
12634;DHT22;6382;48.614;8.880;2023-03-01T11:15:22;3.40;99.90
12634;DHT22;6382;48.614;8.880;2023-03-01T11:17:49;3.50;99.90
12634;DHT22;6382;48.614;8.880;2023-03-01T11:22:56;3.60;99.90
12634;DHT22;6382;48.614;8.880;2023-03-01T11:25:25;3.70;99.90
12634;DHT22;6382;48.614;8.880;2023-03-01T11:27:53;3.70;99.90
12634;DHT22;6382;48.614;8.880;2023-03-01T11:30:27;3.80;99.90
12634;DHT22;6382;48.614;8.880;2023-03-01T11:33:02;3.80;99.90
12634;DHT22;6382;48.614;8.880;2023-03-01T11:35:29;3.90;99.90
12634;DHT22;6382;48.614;8.880;2023-03-01T11:37:59;3.90;99.90
12634;DHT22;6382;48.614;8.880;2023-03-01T11:40:31;4.00;99.90
12634;DHT22;6382;48.614;8.880;2023-03-01T11:43:15;4.00;99.90
12634;DHT22;6382;48.614;8.880;2023-03-01T11:48:17;4.10;99.90
12634;DHT22;6382;48.614;8.880;2023-03-01T11:50:50;4.10;99.90
12634;DHT22;6382;48.614;8.880;2023-03-01T12:08:48;4.40;99.90
12634;DHT22;6382;48.614;8.880;2023-03-01T12:11:19;4.30;99.90
12634;DHT22;6382;48.614;8.880;2023-03-01T12:14:07;4.40;99.90
12634;DHT22;6382;48.614;8.880;2023-03-01T12:21:48;4.50;99.90
12634;DHT22;6382;48.614;8.880;2023-03-01T12:26:59;4.70;99.90
12634;DHT22;6382;48.614;8.880;2023-03-01T12:29:31;4.70;99.90
12634;DHT22;6382;48.614;8.880;2023-03-01T12:35:29;4.80;99.90
12634;DHT22;6382;48.614;8.880;2023-03-01T12:40:21;4.90;99.90
12634;DHT22;6382;48.614;8.880;2023-03-01T12:48:08;4.90;99.90
12634;DHT22;6382;48.614;8.880;2023-03-01T12:50:38;4.90;99.90
12634;DHT22;6382;48.614;8.880;2023-03-01T12:53:07;4.90;99.90
12634;DHT22;6382;48.614;8.880;2023-03-01T12:55:41;6.10;99.90
12634;DHT22;6382;48.614;8.880;2023-03-01T12:58:24;5.10;99.90
12634;DHT22;6382;48.614;8.880;2023-03-01T13:04:12;5.10;99.90
12634;DHT22;6382;48.614;8.880;2023-03-01T13:06:29;5.30;99.90
12634;DHT22;6382;48.614;8.880;2023-03-01T13:09:14;5.40;99.90
12634;DHT22;6382;48.614;8.880;2023-03-01T13:11:43;5.40;99.90
12634;DHT22;6382;48.614;8.880;2023-03-01T13:16:55;5.40;99.90
12634;DHT22;6382;48.614;8.880;2023-03-01T13:19:23;5.30;99.90
12634;DHT22;6382;48.614;8.880;2023-03-01T13:21:51;6.70;99.90
12634;DHT22;6382;48.614;8.880;2023-03-01T13:24:24;5.50;99.90
12634;DHT22;6382;48.614;8.880;2023-03-01T13:27:11;5.50;99.90
12634;DHT22;6382;48.614;8.880;2023-03-01T13:29:44;5.50;99.90
12634;DHT22;6382;48.614;8.880;2023-03-01T13:32:19;4.60;99.90
12634;DHT22;6382;48.614;8.880;2023-03-01T13:34:46;5.60;99.90
12634;DHT22;6382;48.614;8.880;2023-03-01T13:37:21;5.70;99.90
12634;DHT22;6382;48.614;8.880;2023-03-01T13:39:48;5.80;99.90
12634;DHT22;6382;48.614;8.880;2023-03-01T13:42:35;5.80;99.90
12634;DHT22;6382;48.614;8.880;2023-03-01T13:45:17;5.80;99.90
12634;DHT22;6382;48.614;8.880;2023-03-01T13:47:45;5.90;99.90
12634;DHT22;6382;48.614;8.880;2023-03-01T13:50:20;5.90;99.90
12634;DHT22;6382;48.614;8.880;2023-03-01T13:52:50;5.90;99.90
12634;DHT22;6382;48.614;8.880;2023-03-01T13:55:20;5.90;99.90
12634;DHT22;6382;48.614;8.880;2023-03-01T13:57:49;6.00;99.90
12634;DHT22;6382;48.614;8.880;2023-03-01T14:03:10;6.20;99.90
12634;DHT22;6382;48.614;8.880;2023-03-01T14:05:37;6.20;99.90
12634;DHT22;6382;48.614;8.880;2023-03-01T14:08:04;6.20;99.90
12634;DHT22;6382;48.614;8.880;2023-03-01T14:10:35;6.30;99.90
12634;DHT22;6382;48.614;8.880;2023-03-01T14:13:09;6.30;99.90
12634;DHT22;6382;48.614;8.880;2023-03-01T14:15:42;6.30;99.90
12634;DHT22;6382;48.614;8.880;2023-03-01T14:18:21;6.30;99.90
12634;DHT22;6382;48.614;8.880;2023-03-01T14:20:53;6.40;99.90
12634;DHT22;6382;48.614;8.880;2023-03-01T14:23:20;6.40;99.90
12634;DHT22;6382;48.614;8.880;2023-03-01T14:25:51;6.30;99.90
12634;DHT22;6382;48.614;8.880;2023-03-01T14:28:23;6.30;99.90
12634;DHT22;6382;48.614;8.880;2023-03-01T14:30:52;6.30;99.90
12634;DHT22;6382;48.614;8.880;2023-03-01T14:35:53;6.40;99.90
12634;DHT22;6382;48.614;8.880;2023-03-01T14:38:21;6.30;99.90
12634;DHT22;6382;48.614;8.880;2023-03-01T14:40:48;8.20;99.90
12634;DHT22;6382;48.614;8.880;2023-03-01T14:43:18;6.20;99.90
12634;DHT22;6382;48.614;8.880;2023-03-01T14:45:48;6.20;99.90
12634;DHT22;6382;48.614;8.880;2023-03-01T14:48:16;6.10;99.90
12634;DHT22;6382;48.614;8.880;2023-03-01T14:50:43;6.10;99.90
12634;DHT22;6382;48.614;8.880;2023-03-01T14:53:16;6.10;99.90
12634;DHT22;6382;48.614;8.880;2023-03-01T14:55:44;6.00;99.90
12634;DHT22;6382;48.614;8.880;2023-03-01T14:58:12;6.00;99.90
12634;DHT22;6382;48.614;8.880;2023-03-01T15:00:43;6.10;99.90
12634;DHT22;6382;48.614;8.880;2023-03-01T15:03:14;6.00;99.90
12634;DHT22;6382;48.614;8.880;2023-03-01T15:05:44;5.90;99.90
12634;DHT22;6382;48.614;8.880;2023-03-01T15:08:16;5.90;99.90
12634;DHT22;6382;48.614;8.880;2023-03-01T15:10:55;7.40;99.90
12634;DHT22;6382;48.614;8.880;2023-03-01T15:13:23;5.90;99.90
12634;DHT22;6382;48.614;8.880;2023-03-01T15:15:50;6.00;99.90
12634;DHT22;6382;48.614;8.880;2023-03-01T15:18:27;6.00;99.90
12634;DHT22;6382;48.614;8.880;2023-03-01T15:20:54;6.00;99.90
12634;DHT22;6382;48.614;8.880;2023-03-01T15:23:25;6.00;99.90
12634;DHT22;6382;48.614;8.880;2023-03-01T15:25:53;5.90;99.90
12634;DHT22;6382;48.614;8.880;2023-03-01T15:28:24;5.90;99.90
12634;DHT22;6382;48.614;8.880;2023-03-01T15:30:52;5.90;99.90
12634;DHT22;6382;48.614;8.880;2023-03-01T15:35:49;5.90;99.90
12634;DHT22;6382;48.614;8.880;2023-03-01T15:38:24;5.90;99.90
12634;DHT22;6382;48.614;8.880;2023-03-01T15:40:51;5.80;99.90
12634;DHT22;6382;48.614;8.880;2023-03-01T15:43:41;7.00;99.90
12634;DHT22;6382;48.614;8.880;2023-03-01T15:46:44;5.80;99.90
12634;DHT22;6382;48.614;8.880;2023-03-01T15:49:02;5.70;99.90
12634;DHT22;6382;48.614;8.880;2023-03-01T15:53:56;5.70;99.90
12634;DHT22;6382;48.614;8.880;2023-03-01T15:56:24;5.70;99.90
12634;DHT22;6382;48.614;8.880;2023-03-01T15:58:51;5.70;99.90
12634;DHT22;6382;48.614;8.880;2023-03-01T16:01:17;7.10;99.90
12634;DHT22;6382;48.614;8.880;2023-03-01T16:03:44;5.70;99.90
12634;DHT22;6382;48.614;8.880;2023-03-01T16:06:11;5.60;99.90
12634;DHT22;6382;48.614;8.880;2023-03-01T16:08:38;5.50;99.90
12634;DHT22;6382;48.614;8.880;2023-03-01T16:11:09;5.50;99.90
12634;DHT22;6382;48.614;8.880;2023-03-01T16:13:37;5.40;99.90
12634;DHT22;6382;48.614;8.880;2023-03-01T16:16:04;5.30;99.90
12634;DHT22;6382;48.614;8.880;2023-03-01T16:18:31;5.30;99.90
12634;DHT22;6382;48.614;8.880;2023-03-01T16:20:57;5.20;99.90
12634;DHT22;6382;48.614;8.880;2023-03-01T16:23:24;5.20;99.90
12634;DHT22;6382;48.614;8.880;2023-03-01T16:25:51;5.10;99.90
12634;DHT22;6382;48.614;8.880;2023-03-01T16:28:17;5.10;99.90
12634;DHT22;6382;48.614;8.880;2023-03-01T16:30:45;5.00;99.90
12634;DHT22;6382;48.614;8.880;2023-03-01T16:33:13;5.00;99.90
12634;DHT22;6382;48.614;8.880;2023-03-01T16:35:59;4.90;99.90
12634;DHT22;6382;48.614;8.880;2023-03-01T16:38:26;4.90;99.90
12634;DHT22;6382;48.614;8.880;2023-03-01T16:40:53;4.80;99.90
12634;DHT22;6382;48.614;8.880;2023-03-01T16:43:19;4.80;99.90
12634;DHT22;6382;48.614;8.880;2023-03-01T16:45:46;4.80;99.90
12634;DHT22;6382;48.614;8.880;2023-03-01T16:48:13;4.70;99.90
12634;DHT22;6382;48.614;8.880;2023-03-01T16:50:40;4.70;99.90
12634;DHT22;6382;48.614;8.880;2023-03-01T16:53:06;4.60;99.90
12634;DHT22;6382;48.614;8.880;2023-03-01T16:55:33;4.60;99.90
12634;DHT22;6382;48.614;8.880;2023-03-01T16:58:00;4.60;99.90
12634;DHT22;6382;48.614;8.880;2023-03-01T17:00:27;4.50;99.90
12634;DHT22;6382;48.614;8.880;2023-03-01T17:02:54;4.40;99.90
12634;DHT22;6382;48.614;8.880;2023-03-01T17:05:21;4.40;99.90
12634;DHT22;6382;48.614;8.880;2023-03-01T17:07:50;4.30;99.90
12634;DHT22;6382;48.614;8.880;2023-03-01T17:10:17;4.30;99.90
12634;DHT22;6382;48.614;8.880;2023-03-01T17:12:44;4.20;99.90
12634;DHT22;6382;48.614;8.880;2023-03-01T17:15:10;4.10;99.90